sensor_id;sensor_type;location;lat;lon;timestamp;P1;durP1;ratioP1;P2;durP2;ratioP2
6017;SDS011;3037;51.068;13.780;2022-07-29T00:02:00;4.23;;;2.00;;
6017;SDS011;3037;51.068;13.780;2022-07-29T00:04:25;8.63;;;2.17;;
6017;SDS011;3037;51.068;13.780;2022-07-29T00:06:51;4.60;;;1.77;;
6017;SDS011;3037;51.068;13.780;2022-07-29T00:09:16;3.50;;;2.43;;
6017;SDS011;3037;51.068;13.780;2022-07-29T00:11:42;2.90;;;2.30;;
6017;SDS011;3037;51.068;13.780;2022-07-29T00:14:08;11.37;;;2.30;;
6017;SDS011;3037;51.068;13.780;2022-07-29T00:16:34;9.80;;;2.33;;
6017;SDS011;3037;51.068;13.780;2022-07-29T00:18:59;2.40;;;1.93;;
6017;SDS011;3037;51.068;13.780;2022-07-29T00:21:25;6.40;;;2.30;;
6017;SDS011;3037;51.068;13.780;2022-07-29T00:23:50;10.70;;;2.60;;
6017;SDS011;3037;51.068;13.780;2022-07-29T00:26:16;5.40;;;1.83;;
6017;SDS011;3037;51.068;13.780;2022-07-29T00:28:41;3.60;;;2.03;;
6017;SDS011;3037;51.068;13.780;2022-07-29T00:31:07;5.07;;;2.70;;
6017;SDS011;3037;51.068;13.780;2022-07-29T00:33:33;6.90;;;2.17;;
6017;SDS011;3037;51.068;13.780;2022-07-29T00:35:58;9.17;;;2.40;;
6017;SDS011;3037;51.068;13.780;2022-07-29T00:38:24;7.73;;;2.93;;
6017;SDS011;3037;51.068;13.780;2022-07-29T00:40:49;4.23;;;2.50;;
6017;SDS011;3037;51.068;13.780;2022-07-29T00:43:15;2.10;;;2.00;;
6017;SDS011;3037;51.068;13.780;2022-07-29T00:45:42;7.30;;;2.63;;
6017;SDS011;3037;51.068;13.780;2022-07-29T00:48:08;12.20;;;2.37;;
6017;SDS011;3037;51.068;13.780;2022-07-29T00:50:34;16.53;;;2.23;;
6017;SDS011;3037;51.068;13.780;2022-07-29T00:53:00;6.97;;;2.33;;
6017;SDS011;3037;51.068;13.780;2022-07-29T00:55:27;6.53;;;2.50;;
6017;SDS011;3037;51.068;13.780;2022-07-29T00:57:53;4.00;;;2.17;;
6017;SDS011;3037;51.068;13.780;2022-07-29T01:00:21;2.10;;;2.00;;
6017;SDS011;3037;51.068;13.780;2022-07-29T01:02:48;12.57;;;2.57;;
6017;SDS011;3037;51.068;13.780;2022-07-29T01:05:14;9.40;;;2.40;;
6017;SDS011;3037;51.068;13.780;2022-07-29T01:07:42;3.90;;;2.40;;
6017;SDS011;3037;51.068;13.780;2022-07-29T01:10:08;9.17;;;3.20;;
6017;SDS011;3037;51.068;13.780;2022-07-29T01:12:36;3.13;;;2.87;;
6017;SDS011;3037;51.068;13.780;2022-07-29T01:15:03;3.90;;;2.67;;
6017;SDS011;3037;51.068;13.780;2022-07-29T01:23:11;7.10;;;1.90;;
6017;SDS011;3037;51.068;13.780;2022-07-29T01:28:59;4.87;;;2.60;;
6017;SDS011;3037;51.068;13.780;2022-07-29T01:31:33;9.67;;;2.73;;
6017;SDS011;3037;51.068;13.780;2022-07-29T01:34:07;3.63;;;3.33;;
6017;SDS011;3037;51.068;13.780;2022-07-29T01:36:37;10.83;;;3.40;;
6017;SDS011;3037;51.068;13.780;2022-07-29T01:39:14;6.90;;;4.30;;
6017;SDS011;3037;51.068;13.780;2022-07-29T01:41:55;8.03;;;4.53;;
6017;SDS011;3037;51.068;13.780;2022-07-29T01:44:27;9.30;;;4.80;;
6017;SDS011;3037;51.068;13.780;2022-07-29T01:46:58;4.83;;;4.30;;
6017;SDS011;3037;51.068;13.780;2022-07-29T01:49:30;10.90;;;4.87;;
6017;SDS011;3037;51.068;13.780;2022-07-29T01:52:03;13.43;;;5.50;;
6017;SDS011;3037;51.068;13.780;2022-07-29T01:54:37;11.17;;;6.40;;
6017;SDS011;3037;51.068;13.780;2022-07-29T01:57:07;11.73;;;5.27;;
6017;SDS011;3037;51.068;13.780;2022-07-29T01:59:35;10.47;;;6.47;;
6017;SDS011;3037;51.068;13.780;2022-07-29T02:02:03;18.10;;;6.97;;
6017;SDS011;3037;51.068;13.780;2022-07-29T02:04:31;5.73;;;4.90;;
6017;SDS011;3037;51.068;13.780;2022-07-29T02:07:00;15.20;;;6.77;;
6017;SDS011;3037;51.068;13.780;2022-07-29T02:09:28;12.93;;;6.70;;
6017;SDS011;3037;51.068;13.780;2022-07-29T02:11:56;26.63;;;7.37;;
6017;SDS011;3037;51.068;13.780;2022-07-29T02:14:24;18.80;;;8.33;;
6017;SDS011;3037;51.068;13.780;2022-07-29T02:16:52;13.13;;;7.40;;
6017;SDS011;3037;51.068;13.780;2022-07-29T02:19:21;12.90;;;7.40;;
6017;SDS011;3037;51.068;13.780;2022-07-29T02:21:48;10.40;;;5.80;;
6017;SDS011;3037;51.068;13.780;2022-07-29T02:24:18;11.53;;;5.60;;
6017;SDS011;3037;51.068;13.780;2022-07-29T02:26:45;8.27;;;5.37;;
6017;SDS011;3037;51.068;13.780;2022-07-29T02:29:13;9.47;;;5.03;;
6017;SDS011;3037;51.068;13.780;2022-07-29T02:31:41;12.80;;;5.63;;
6017;SDS011;3037;51.068;13.780;2022-07-29T02:34:10;12.33;;;5.07;;
6017;SDS011;3037;51.068;13.780;2022-07-29T02:36:36;4.00;;;3.70;;
6017;SDS011;3037;51.068;13.780;2022-07-29T02:39:02;9.10;;;4.40;;
6017;SDS011;3037;51.068;13.780;2022-07-29T02:41:35;14.20;;;4.70;;
6017;SDS011;3037;51.068;13.780;2022-07-29T02:44:11;4.33;;;3.93;;
6017;SDS011;3037;51.068;13.780;2022-07-29T02:46:41;9.20;;;4.93;;
6017;SDS011;3037;51.068;13.780;2022-07-29T02:52:02;11.87;;;6.43;;
6017;SDS011;3037;51.068;13.780;2022-07-29T02:57:09;15.73;;;6.67;;
6017;SDS011;3037;51.068;13.780;2022-07-29T02:59:45;12.20;;;5.97;;
6017;SDS011;3037;51.068;13.780;2022-07-29T03:02:15;15.00;;;6.70;;
6017;SDS011;3037;51.068;13.780;2022-07-29T03:04:41;11.67;;;6.07;;
6017;SDS011;3037;51.068;13.780;2022-07-29T03:07:08;10.70;;;5.30;;
6017;SDS011;3037;51.068;13.780;2022-07-29T03:09:35;12.97;;;5.70;;
6017;SDS011;3037;51.068;13.780;2022-07-29T03:12:02;9.07;;;5.00;;
6017;SDS011;3037;51.068;13.780;2022-07-29T03:14:29;7.50;;;4.00;;
6017;SDS011;3037;51.068;13.780;2022-07-29T03:16:56;10.53;;;4.20;;
6017;SDS011;3037;51.068;13.780;2022-07-29T03:19:22;6.57;;;4.70;;
6017;SDS011;3037;51.068;13.780;2022-07-29T03:21:48;8.07;;;5.50;;
6017;SDS011;3037;51.068;13.780;2022-07-29T03:24:24;8.30;;;4.43;;
6017;SDS011;3037;51.068;13.780;2022-07-29T03:26:57;6.70;;;4.00;;
6017;SDS011;3037;51.068;13.780;2022-07-29T03:29:23;6.67;;;3.90;;
6017;SDS011;3037;51.068;13.780;2022-07-29T03:31:49;16.00;;;4.80;;
6017;SDS011;3037;51.068;13.780;2022-07-29T03:34:15;12.23;;;4.20;;
6017;SDS011;3037;51.068;13.780;2022-07-29T03:36:40;12.97;;;5.93;;
6017;SDS011;3037;51.068;13.780;2022-07-29T03:39:06;14.00;;;5.40;;
6017;SDS011;3037;51.068;13.780;2022-07-29T03:41:34;15.40;;;5.70;;
6017;SDS011;3037;51.068;13.780;2022-07-29T03:44:01;15.13;;;5.63;;
6017;SDS011;3037;51.068;13.780;2022-07-29T03:46:28;9.93;;;5.83;;
6017;SDS011;3037;51.068;13.780;2022-07-29T03:48:57;8.80;;;6.83;;
6017;SDS011;3037;51.068;13.780;2022-07-29T03:51:26;11.73;;;7.07;;
6017;SDS011;3037;51.068;13.780;2022-07-29T03:53:52;15.50;;;5.30;;
6017;SDS011;3037;51.068;13.780;2022-07-29T03:56:19;15.47;;;6.40;;
6017;SDS011;3037;51.068;13.780;2022-07-29T03:58:47;9.43;;;5.87;;
6017;SDS011;3037;51.068;13.780;2022-07-29T04:01:15;14.83;;;6.30;;
6017;SDS011;3037;51.068;13.780;2022-07-29T04:03:42;7.73;;;6.10;;
6017;SDS011;3037;51.068;13.780;2022-07-29T04:06:10;9.43;;;5.20;;
6017;SDS011;3037;51.068;13.780;2022-07-29T04:08:36;19.27;;;6.87;;
6017;SDS011;3037;51.068;13.780;2022-07-29T04:11:02;10.53;;;5.47;;
6017;SDS011;3037;51.068;13.780;2022-07-29T04:13:28;16.97;;;7.23;;
6017;SDS011;3037;51.068;13.780;2022-07-29T04:15:54;14.67;;;6.60;;
6017;SDS011;3037;51.068;13.780;2022-07-29T04:18:20;12.53;;;7.83;;
6017;SDS011;3037;51.068;13.780;2022-07-29T04:20:45;12.40;;;7.57;;
6017;SDS011;3037;51.068;13.780;2022-07-29T04:23:11;14.20;;;7.80;;
6017;SDS011;3037;51.068;13.780;2022-07-29T04:25:37;16.77;;;6.80;;
6017;SDS011;3037;51.068;13.780;2022-07-29T04:28:03;15.63;;;8.90;;
6017;SDS011;3037;51.068;13.780;2022-07-29T04:30:30;13.70;;;7.67;;
6017;SDS011;3037;51.068;13.780;2022-07-29T04:32:57;8.07;;;4.53;;
6017;SDS011;3037;51.068;13.780;2022-07-29T04:35:23;15.80;;;5.50;;
6017;SDS011;3037;51.068;13.780;2022-07-29T04:37:49;8.57;;;3.90;;
6017;SDS011;3037;51.068;13.780;2022-07-29T04:40:14;8.60;;;5.23;;
6017;SDS011;3037;51.068;13.780;2022-07-29T04:42:40;12.73;;;6.23;;
6017;SDS011;3037;51.068;13.780;2022-07-29T04:45:06;12.43;;;6.97;;
6017;SDS011;3037;51.068;13.780;2022-07-29T04:47:31;13.27;;;6.87;;
6017;SDS011;3037;51.068;13.780;2022-07-29T04:49:57;10.80;;;6.83;;
6017;SDS011;3037;51.068;13.780;2022-07-29T04:52:23;19.20;;;11.10;;
6017;SDS011;3037;51.068;13.780;2022-07-29T04:54:48;26.87;;;12.57;;
6017;SDS011;3037;51.068;13.780;2022-07-29T04:57:14;19.00;;;11.67;;
6017;SDS011;3037;51.068;13.780;2022-07-29T04:59:39;25.47;;;10.83;;
6017;SDS011;3037;51.068;13.780;2022-07-29T05:02:05;20.23;;;9.60;;
6017;SDS011;3037;51.068;13.780;2022-07-29T05:04:30;24.23;;;12.60;;
6017;SDS011;3037;51.068;13.780;2022-07-29T05:06:56;26.13;;;13.50;;
6017;SDS011;3037;51.068;13.780;2022-07-29T05:09:22;29.37;;;14.80;;
6017;SDS011;3037;51.068;13.780;2022-07-29T05:11:47;22.57;;;11.10;;
6017;SDS011;3037;51.068;13.780;2022-07-29T05:14:13;18.23;;;10.00;;
6017;SDS011;3037;51.068;13.780;2022-07-29T05:16:38;27.93;;;11.67;;
6017;SDS011;3037;51.068;13.780;2022-07-29T05:19:08;14.40;;;9.67;;
6017;SDS011;3037;51.068;13.780;2022-07-29T05:21:33;24.67;;;9.33;;
6017;SDS011;3037;51.068;13.780;2022-07-29T05:23:59;12.13;;;8.43;;
6017;SDS011;3037;51.068;13.780;2022-07-29T05:26:24;21.13;;;8.50;;
6017;SDS011;3037;51.068;13.780;2022-07-29T05:28:50;22.60;;;9.93;;
6017;SDS011;3037;51.068;13.780;2022-07-29T05:31:15;13.20;;;7.60;;
6017;SDS011;3037;51.068;13.780;2022-07-29T05:33:41;34.13;;;9.90;;
6017;SDS011;3037;51.068;13.780;2022-07-29T05:36:07;18.00;;;8.70;;
6017;SDS011;3037;51.068;13.780;2022-07-29T05:38:33;21.33;;;11.17;;
6017;SDS011;3037;51.068;13.780;2022-07-29T05:41:00;20.53;;;10.83;;
6017;SDS011;3037;51.068;13.780;2022-07-29T05:43:26;19.40;;;11.10;;
6017;SDS011;3037;51.068;13.780;2022-07-29T05:45:52;19.10;;;12.90;;
6017;SDS011;3037;51.068;13.780;2022-07-29T05:48:18;19.63;;;11.40;;
6017;SDS011;3037;51.068;13.780;2022-07-29T05:50:43;20.83;;;10.90;;
6017;SDS011;3037;51.068;13.780;2022-07-29T05:53:09;23.47;;;13.20;;
6017;SDS011;3037;51.068;13.780;2022-07-29T05:55:34;26.50;;;12.83;;
6017;SDS011;3037;51.068;13.780;2022-07-29T05:58:00;25.77;;;12.40;;
6017;SDS011;3037;51.068;13.780;2022-07-29T06:00:25;17.97;;;11.60;;
6017;SDS011;3037;51.068;13.780;2022-07-29T06:02:51;17.43;;;11.77;;
6017;SDS011;3037;51.068;13.780;2022-07-29T06:05:16;25.23;;;11.80;;
6017;SDS011;3037;51.068;13.780;2022-07-29T06:07:42;25.90;;;13.63;;
6017;SDS011;3037;51.068;13.780;2022-07-29T06:10:07;28.93;;;13.50;;
6017;SDS011;3037;51.068;13.780;2022-07-29T06:12:34;32.37;;;14.87;;
6017;SDS011;3037;51.068;13.780;2022-07-29T06:14:59;26.60;;;15.30;;
6017;SDS011;3037;51.068;13.780;2022-07-29T06:17:25;31.43;;;13.27;;
6017;SDS011;3037;51.068;13.780;2022-07-29T06:19:50;34.27;;;14.50;;
6017;SDS011;3037;51.068;13.780;2022-07-29T06:22:16;40.60;;;14.97;;
6017;SDS011;3037;51.068;13.780;2022-07-29T06:24:42;28.77;;;14.47;;
6017;SDS011;3037;51.068;13.780;2022-07-29T06:27:09;29.67;;;13.50;;
6017;SDS011;3037;51.068;13.780;2022-07-29T06:29:35;21.90;;;12.97;;
6017;SDS011;3037;51.068;13.780;2022-07-29T06:32:00;27.50;;;13.70;;
6017;SDS011;3037;51.068;13.780;2022-07-29T06:34:27;34.63;;;12.43;;
6017;SDS011;3037;51.068;13.780;2022-07-29T06:36:52;24.37;;;13.03;;
6017;SDS011;3037;51.068;13.780;2022-07-29T06:39:18;20.77;;;11.70;;
6017;SDS011;3037;51.068;13.780;2022-07-29T06:41:47;19.23;;;11.80;;
6017;SDS011;3037;51.068;13.780;2022-07-29T06:44:16;20.43;;;12.43;;
6017;SDS011;3037;51.068;13.780;2022-07-29T06:46:43;27.77;;;12.50;;
6017;SDS011;3037;51.068;13.780;2022-07-29T06:49:08;23.40;;;13.97;;
6017;SDS011;3037;51.068;13.780;2022-07-29T06:51:34;27.70;;;14.37;;
6017;SDS011;3037;51.068;13.780;2022-07-29T06:54:01;21.33;;;11.20;;
6017;SDS011;3037;51.068;13.780;2022-07-29T06:56:27;21.50;;;13.30;;
6017;SDS011;3037;51.068;13.780;2022-07-29T06:58:57;27.37;;;12.53;;
6017;SDS011;3037;51.068;13.780;2022-07-29T07:01:22;23.37;;;12.37;;
6017;SDS011;3037;51.068;13.780;2022-07-29T07:03:48;23.97;;;12.00;;
6017;SDS011;3037;51.068;13.780;2022-07-29T07:06:13;24.13;;;13.80;;
6017;SDS011;3037;51.068;13.780;2022-07-29T07:08:39;19.77;;;11.77;;
6017;SDS011;3037;51.068;13.780;2022-07-29T07:11:05;33.17;;;13.20;;
6017;SDS011;3037;51.068;13.780;2022-07-29T07:13:32;25.40;;;11.20;;
6017;SDS011;3037;51.068;13.780;2022-07-29T07:15:59;22.73;;;11.77;;
6017;SDS011;3037;51.068;13.780;2022-07-29T07:18:25;23.07;;;10.40;;
6017;SDS011;3037;51.068;13.780;2022-07-29T07:20:51;16.87;;;11.63;;
6017;SDS011;3037;51.068;13.780;2022-07-29T07:23:16;23.63;;;12.40;;
6017;SDS011;3037;51.068;13.780;2022-07-29T07:25:42;24.73;;;10.63;;
6017;SDS011;3037;51.068;13.780;2022-07-29T07:28:08;28.93;;;10.70;;
6017;SDS011;3037;51.068;13.780;2022-07-29T07:30:33;24.63;;;11.23;;
6017;SDS011;3037;51.068;13.780;2022-07-29T07:32:59;16.73;;;10.60;;
6017;SDS011;3037;51.068;13.780;2022-07-29T07:35:25;20.83;;;10.37;;
6017;SDS011;3037;51.068;13.780;2022-07-29T07:37:52;15.50;;;9.47;;
6017;SDS011;3037;51.068;13.780;2022-07-29T07:40:18;13.33;;;8.47;;
6017;SDS011;3037;51.068;13.780;2022-07-29T07:42:44;17.07;;;9.80;;
6017;SDS011;3037;51.068;13.780;2022-07-29T07:45:10;15.13;;;9.80;;
6017;SDS011;3037;51.068;13.780;2022-07-29T07:47:36;22.83;;;9.97;;
6017;SDS011;3037;51.068;13.780;2022-07-29T07:50:05;30.43;;;10.73;;
6017;SDS011;3037;51.068;13.780;2022-07-29T07:52:33;15.30;;;9.43;;
6017;SDS011;3037;51.068;13.780;2022-07-29T07:54:59;19.17;;;11.50;;
6017;SDS011;3037;51.068;13.780;2022-07-29T07:57:25;28.40;;;10.63;;
6017;SDS011;3037;51.068;13.780;2022-07-29T07:59:50;23.07;;;10.30;;
6017;SDS011;3037;51.068;13.780;2022-07-29T08:02:16;31.53;;;9.60;;
6017;SDS011;3037;51.068;13.780;2022-07-29T08:04:41;19.57;;;10.97;;
6017;SDS011;3037;51.068;13.780;2022-07-29T08:07:07;18.93;;;9.70;;
6017;SDS011;3037;51.068;13.780;2022-07-29T08:09:33;15.70;;;9.43;;
6017;SDS011;3037;51.068;13.780;2022-07-29T08:11:59;37.03;;;11.60;;
6017;SDS011;3037;51.068;13.780;2022-07-29T08:14:27;21.90;;;10.10;;
6017;SDS011;3037;51.068;13.780;2022-07-29T08:16:52;30.37;;;11.93;;
6017;SDS011;3037;51.068;13.780;2022-07-29T08:19:18;24.00;;;11.50;;
6017;SDS011;3037;51.068;13.780;2022-07-29T08:21:44;20.33;;;9.73;;
6017;SDS011;3037;51.068;13.780;2022-07-29T08:24:09;29.87;;;10.67;;
6017;SDS011;3037;51.068;13.780;2022-07-29T08:26:53;30.47;;;11.53;;
6017;SDS011;3037;51.068;13.780;2022-07-29T08:29:19;20.80;;;10.30;;
6017;SDS011;3037;51.068;13.780;2022-07-29T08:31:44;32.47;;;10.30;;
6017;SDS011;3037;51.068;13.780;2022-07-29T08:34:10;19.30;;;10.70;;
6017;SDS011;3037;51.068;13.780;2022-07-29T08:36:36;24.33;;;10.80;;
6017;SDS011;3037;51.068;13.780;2022-07-29T08:39:03;30.90;;;11.47;;
6017;SDS011;3037;51.068;13.780;2022-07-29T08:41:29;18.57;;;9.83;;
6017;SDS011;3037;51.068;13.780;2022-07-29T08:43:54;21.47;;;9.83;;
6017;SDS011;3037;51.068;13.780;2022-07-29T08:46:20;32.63;;;10.63;;
6017;SDS011;3037;51.068;13.780;2022-07-29T08:48:47;24.47;;;10.67;;
6017;SDS011;3037;51.068;13.780;2022-07-29T08:51:17;19.15;;;10.27;;
6017;SDS011;3037;51.068;13.780;2022-07-29T08:53:44;25.63;;;11.60;;
6017;SDS011;3037;51.068;13.780;2022-07-29T08:56:13;28.17;;;12.40;;
6017;SDS011;3037;51.068;13.780;2022-07-29T08:58:41;40.53;;;12.17;;
6017;SDS011;3037;51.068;13.780;2022-07-29T09:01:07;31.70;;;12.30;;
6017;SDS011;3037;51.068;13.780;2022-07-29T09:03:35;22.07;;;10.70;;
6017;SDS011;3037;51.068;13.780;2022-07-29T09:06:04;20.80;;;10.10;;
6017;SDS011;3037;51.068;13.780;2022-07-29T09:08:30;21.83;;;8.97;;
6017;SDS011;3037;51.068;13.780;2022-07-29T09:10:56;18.67;;;10.10;;
6017;SDS011;3037;51.068;13.780;2022-07-29T09:13:23;35.07;;;11.17;;
6017;SDS011;3037;51.068;13.780;2022-07-29T09:15:49;22.67;;;10.90;;
6017;SDS011;3037;51.068;13.780;2022-07-29T09:18:34;20.10;;;11.30;;
6017;SDS011;3037;51.068;13.780;2022-07-29T09:21:15;22.37;;;9.80;;
6017;SDS011;3037;51.068;13.780;2022-07-29T09:24:04;13.27;;;9.93;;
6017;SDS011;3037;51.068;13.780;2022-07-29T09:26:38;22.47;;;9.80;;
6017;SDS011;3037;51.068;13.780;2022-07-29T09:29:14;20.80;;;10.37;;
6017;SDS011;3037;51.068;13.780;2022-07-29T09:31:46;17.20;;;10.27;;
6017;SDS011;3037;51.068;13.780;2022-07-29T09:34:26;16.33;;;10.13;;
6017;SDS011;3037;51.068;13.780;2022-07-29T09:36:53;16.30;;;10.27;;
6017;SDS011;3037;51.068;13.780;2022-07-29T09:39:29;18.90;;;10.33;;
6017;SDS011;3037;51.068;13.780;2022-07-29T09:41:56;21.23;;;9.57;;
6017;SDS011;3037;51.068;13.780;2022-07-29T09:44:22;16.13;;;9.43;;
6017;SDS011;3037;51.068;13.780;2022-07-29T09:46:59;10.57;;;8.30;;
6017;SDS011;3037;51.068;13.780;2022-07-29T09:49:35;14.20;;;8.60;;
6017;SDS011;3037;51.068;13.780;2022-07-29T09:52:14;14.17;;;9.07;;
6017;SDS011;3037;51.068;13.780;2022-07-29T09:54:40;14.40;;;9.80;;
6017;SDS011;3037;51.068;13.780;2022-07-29T09:57:07;15.43;;;10.47;;
6017;SDS011;3037;51.068;13.780;2022-07-29T09:59:37;17.27;;;10.77;;
6017;SDS011;3037;51.068;13.780;2022-07-29T10:02:11;15.57;;;10.80;;
6017;SDS011;3037;51.068;13.780;2022-07-29T10:04:41;19.57;;;11.70;;
6017;SDS011;3037;51.068;13.780;2022-07-29T10:07:07;18.40;;;10.83;;
6017;SDS011;3037;51.068;13.780;2022-07-29T10:09:34;16.40;;;11.07;;
6017;SDS011;3037;51.068;13.780;2022-07-29T10:12:10;13.30;;;9.20;;
6017;SDS011;3037;51.068;13.780;2022-07-29T10:14:39;19.07;;;8.87;;
6017;SDS011;3037;51.068;13.780;2022-07-29T10:17:06;19.83;;;9.67;;
6017;SDS011;3037;51.068;13.780;2022-07-29T10:19:34;19.03;;;9.90;;
6017;SDS011;3037;51.068;13.780;2022-07-29T10:22:01;20.47;;;9.77;;
6017;SDS011;3037;51.068;13.780;2022-07-29T10:24:34;16.87;;;10.20;;
6017;SDS011;3037;51.068;13.780;2022-07-29T10:27:03;16.80;;;10.07;;
6017;SDS011;3037;51.068;13.780;2022-07-29T10:29:30;14.73;;;8.90;;
6017;SDS011;3037;51.068;13.780;2022-07-29T10:32:11;20.67;;;7.30;;
6017;SDS011;3037;51.068;13.780;2022-07-29T10:37:46;9.80;;;6.53;;
6017;SDS011;3037;51.068;13.780;2022-07-29T10:40:34;9.47;;;7.80;;
6017;SDS011;3037;51.068;13.780;2022-07-29T10:43:24;12.83;;;6.60;;
6017;SDS011;3037;51.068;13.780;2022-07-29T10:45:58;9.90;;;7.10;;
6017;SDS011;3037;51.068;13.780;2022-07-29T10:48:25;7.93;;;5.80;;
6017;SDS011;3037;51.068;13.780;2022-07-29T10:51:03;8.20;;;4.50;;
6017;SDS011;3037;51.068;13.780;2022-07-29T10:56:30;7.80;;;3.50;;
6017;SDS011;3037;51.068;13.780;2022-07-29T11:01:45;4.30;;;3.10;;
6017;SDS011;3037;51.068;13.780;2022-07-29T11:04:15;4.80;;;3.47;;
6017;SDS011;3037;51.068;13.780;2022-07-29T11:09:28;3.40;;;3.20;;
6017;SDS011;3037;51.068;13.780;2022-07-29T11:11:55;9.33;;;2.50;;
6017;SDS011;3037;51.068;13.780;2022-07-29T11:17:24;5.97;;;2.80;;
6017;SDS011;3037;51.068;13.780;2022-07-29T11:19:49;2.63;;;2.53;;
6017;SDS011;3037;51.068;13.780;2022-07-29T11:22:32;5.30;;;2.47;;
6017;SDS011;3037;51.068;13.780;2022-07-29T11:25:14;3.67;;;2.90;;
6017;SDS011;3037;51.068;13.780;2022-07-29T11:27:44;4.97;;;2.13;;
6017;SDS011;3037;51.068;13.780;2022-07-29T11:30:10;8.13;;;2.50;;
6017;SDS011;3037;51.068;13.780;2022-07-29T11:32:40;4.43;;;3.07;;
6017;SDS011;3037;51.068;13.780;2022-07-29T11:35:17;3.10;;;2.90;;
6017;SDS011;3037;51.068;13.780;2022-07-29T11:37:46;3.77;;;2.97;;
6017;SDS011;3037;51.068;13.780;2022-07-29T11:40:32;3.33;;;3.13;;
6017;SDS011;3037;51.068;13.780;2022-07-29T11:42:58;3.50;;;3.20;;
6017;SDS011;3037;51.068;13.780;2022-07-29T11:45:24;8.63;;;2.77;;
6017;SDS011;3037;51.068;13.780;2022-07-29T11:47:55;11.43;;;3.30;;
6017;SDS011;3037;51.068;13.780;2022-07-29T11:50:27;7.40;;;3.60;;
6017;SDS011;3037;51.068;13.780;2022-07-29T11:52:55;9.07;;;6.80;;
6017;SDS011;3037;51.068;13.780;2022-07-29T11:55:21;5.63;;;3.60;;
6017;SDS011;3037;51.068;13.780;2022-07-29T11:57:50;3.77;;;2.90;;
6017;SDS011;3037;51.068;13.780;2022-07-29T12:00:26;14.03;;;8.10;;
6017;SDS011;3037;51.068;13.780;2022-07-29T12:03:09;11.57;;;9.30;;
6017;SDS011;3037;51.068;13.780;2022-07-29T12:05:40;12.47;;;9.37;;
6017;SDS011;3037;51.068;13.780;2022-07-29T12:08:08;12.30;;;8.40;;
6017;SDS011;3037;51.068;13.780;2022-07-29T12:10:36;5.37;;;4.83;;
6017;SDS011;3037;51.068;13.780;2022-07-29T12:13:01;10.40;;;7.93;;
6017;SDS011;3037;51.068;13.780;2022-07-29T12:15:27;6.37;;;4.40;;
6017;SDS011;3037;51.068;13.780;2022-07-29T12:17:53;7.67;;;5.00;;
6017;SDS011;3037;51.068;13.780;2022-07-29T12:20:22;7.37;;;6.13;;
6017;SDS011;3037;51.068;13.780;2022-07-29T12:22:53;14.07;;;7.97;;
6017;SDS011;3037;51.068;13.780;2022-07-29T12:25:19;6.10;;;5.07;;
6017;SDS011;3037;51.068;13.780;2022-07-29T12:27:47;7.37;;;5.23;;
6017;SDS011;3037;51.068;13.780;2022-07-29T12:30:13;15.33;;;5.60;;
6017;SDS011;3037;51.068;13.780;2022-07-29T12:35:11;23.83;;;7.90;;
6017;SDS011;3037;51.068;13.780;2022-07-29T12:37:39;8.70;;;6.07;;
6017;SDS011;3037;51.068;13.780;2022-07-29T12:40:06;10.40;;;6.60;;
6017;SDS011;3037;51.068;13.780;2022-07-29T12:42:33;13.73;;;7.77;;
6017;SDS011;3037;51.068;13.780;2022-07-29T12:44:59;17.77;;;9.60;;
6017;SDS011;3037;51.068;13.780;2022-07-29T12:47:26;19.70;;;9.10;;
6017;SDS011;3037;51.068;13.780;2022-07-29T12:50:07;15.77;;;8.93;;
6017;SDS011;3037;51.068;13.780;2022-07-29T12:52:36;16.93;;;9.60;;
6017;SDS011;3037;51.068;13.780;2022-07-29T12:55:01;8.93;;;7.07;;
6017;SDS011;3037;51.068;13.780;2022-07-29T12:57:27;10.60;;;7.17;;
6017;SDS011;3037;51.068;13.780;2022-07-29T13:00:00;12.90;;;7.53;;
6017;SDS011;3037;51.068;13.780;2022-07-29T13:02:28;14.43;;;8.40;;
6017;SDS011;3037;51.068;13.780;2022-07-29T13:04:57;11.60;;;6.73;;
6017;SDS011;3037;51.068;13.780;2022-07-29T13:07:24;10.20;;;4.03;;
6017;SDS011;3037;51.068;13.780;2022-07-29T13:09:52;6.67;;;5.10;;
6017;SDS011;3037;51.068;13.780;2022-07-29T13:12:18;5.83;;;3.77;;
6017;SDS011;3037;51.068;13.780;2022-07-29T13:14:44;5.80;;;4.00;;
6017;SDS011;3037;51.068;13.780;2022-07-29T13:17:12;9.57;;;4.00;;
6017;SDS011;3037;51.068;13.780;2022-07-29T13:19:41;7.37;;;4.47;;
6017;SDS011;3037;51.068;13.780;2022-07-29T13:22:12;10.23;;;3.37;;
6017;SDS011;3037;51.068;13.780;2022-07-29T13:24:59;15.40;;;4.37;;
6017;SDS011;3037;51.068;13.780;2022-07-29T13:27:31;4.17;;;3.77;;
6017;SDS011;3037;51.068;13.780;2022-07-29T13:29:59;3.90;;;3.57;;
6017;SDS011;3037;51.068;13.780;2022-07-29T13:32:28;6.20;;;3.80;;
6017;SDS011;3037;51.068;13.780;2022-07-29T13:34:55;7.30;;;4.93;;
6017;SDS011;3037;51.068;13.780;2022-07-29T13:37:22;12.23;;;6.57;;
6017;SDS011;3037;51.068;13.780;2022-07-29T13:39:48;5.33;;;4.83;;
6017;SDS011;3037;51.068;13.780;2022-07-29T13:42:13;5.60;;;4.60;;
6017;SDS011;3037;51.068;13.780;2022-07-29T13:44:39;11.10;;;3.87;;
6017;SDS011;3037;51.068;13.780;2022-07-29T13:47:05;5.07;;;4.13;;
6017;SDS011;3037;51.068;13.780;2022-07-29T13:49:32;4.10;;;3.70;;
6017;SDS011;3037;51.068;13.780;2022-07-29T13:51:58;6.13;;;4.37;;
6017;SDS011;3037;51.068;13.780;2022-07-29T13:54:23;4.03;;;3.37;;
6017;SDS011;3037;51.068;13.780;2022-07-29T13:56:49;3.73;;;3.53;;
6017;SDS011;3037;51.068;13.780;2022-07-29T13:59:15;8.13;;;3.33;;
6017;SDS011;3037;51.068;13.780;2022-07-29T14:01:41;3.43;;;3.13;;
6017;SDS011;3037;51.068;13.780;2022-07-29T14:04:07;3.20;;;3.07;;
6017;SDS011;3037;51.068;13.780;2022-07-29T14:06:33;3.77;;;3.47;;
6017;SDS011;3037;51.068;13.780;2022-07-29T14:08:59;4.80;;;3.20;;
6017;SDS011;3037;51.068;13.780;2022-07-29T14:11:24;3.83;;;3.40;;
6017;SDS011;3037;51.068;13.780;2022-07-29T14:13:50;4.00;;;3.70;;
6017;SDS011;3037;51.068;13.780;2022-07-29T14:16:15;6.63;;;4.07;;
6017;SDS011;3037;51.068;13.780;2022-07-29T14:18:41;4.00;;;3.70;;
6017;SDS011;3037;51.068;13.780;2022-07-29T14:21:07;3.80;;;3.60;;
6017;SDS011;3037;51.068;13.780;2022-07-29T14:23:33;3.43;;;3.20;;
6017;SDS011;3037;51.068;13.780;2022-07-29T14:25:58;11.17;;;3.93;;
6017;SDS011;3037;51.068;13.780;2022-07-29T14:28:24;3.57;;;3.23;;
6017;SDS011;3037;51.068;13.780;2022-07-29T14:30:49;5.73;;;3.40;;
6017;SDS011;3037;51.068;13.780;2022-07-29T14:33:15;3.47;;;3.27;;
6017;SDS011;3037;51.068;13.780;2022-07-29T14:35:40;3.47;;;3.17;;
6017;SDS011;3037;51.068;13.780;2022-07-29T14:38:06;3.60;;;3.40;;
6017;SDS011;3037;51.068;13.780;2022-07-29T14:40:31;7.10;;;3.20;;
6017;SDS011;3037;51.068;13.780;2022-07-29T14:42:57;4.87;;;3.40;;
6017;SDS011;3037;51.068;13.780;2022-07-29T14:45:22;22.13;;;4.23;;
6017;SDS011;3037;51.068;13.780;2022-07-29T14:47:48;6.40;;;4.17;;
6017;SDS011;3037;51.068;13.780;2022-07-29T14:50:15;5.07;;;4.27;;
6017;SDS011;3037;51.068;13.780;2022-07-29T14:52:41;4.97;;;4.40;;
6017;SDS011;3037;51.068;13.780;2022-07-29T14:55:07;7.63;;;4.90;;
6017;SDS011;3037;51.068;13.780;2022-07-29T14:57:33;7.00;;;5.63;;
6017;SDS011;3037;51.068;13.780;2022-07-29T14:59:59;9.30;;;6.13;;
6017;SDS011;3037;51.068;13.780;2022-07-29T15:02:24;6.93;;;6.17;;
6017;SDS011;3037;51.068;13.780;2022-07-29T15:04:50;11.00;;;6.37;;
6017;SDS011;3037;51.068;13.780;2022-07-29T15:07:15;9.40;;;7.60;;
6017;SDS011;3037;51.068;13.780;2022-07-29T15:09:41;10.23;;;7.63;;
6017;SDS011;3037;51.068;13.780;2022-07-29T15:12:07;12.17;;;9.03;;
6017;SDS011;3037;51.068;13.780;2022-07-29T15:14:35;10.77;;;8.77;;
6017;SDS011;3037;51.068;13.780;2022-07-29T15:17:01;14.90;;;7.90;;
6017;SDS011;3037;51.068;13.780;2022-07-29T15:19:26;16.07;;;8.57;;
6017;SDS011;3037;51.068;13.780;2022-07-29T15:21:52;17.90;;;8.97;;
6017;SDS011;3037;51.068;13.780;2022-07-29T15:24:18;21.93;;;9.97;;